sensor_id;sensor_type;location;lat;lon;timestamp;P1;durP1;ratioP1;P2;durP2;ratioP2
8652;SDS011;4364;52.426;9.424;2024-01-07T00:00:31;16.80;;;10.40;;
8652;SDS011;4364;52.426;9.424;2024-01-07T00:02:58;15.33;;;9.83;;
8652;SDS011;4364;52.426;9.424;2024-01-07T00:05:25;19.50;;;11.70;;
8652;SDS011;4364;52.426;9.424;2024-01-07T00:07:51;15.17;;;10.03;;
8652;SDS011;4364;52.426;9.424;2024-01-07T00:10:18;18.33;;;10.83;;
8652;SDS011;4364;52.426;9.424;2024-01-07T00:12:44;17.03;;;10.83;;
8652;SDS011;4364;52.426;9.424;2024-01-07T00:15:11;18.40;;;10.67;;
8652;SDS011;4364;52.426;9.424;2024-01-07T00:17:37;18.33;;;11.27;;
8652;SDS011;4364;52.426;9.424;2024-01-07T00:20:04;15.57;;;10.70;;
8652;SDS011;4364;52.426;9.424;2024-01-07T00:22:31;17.60;;;11.27;;
8652;SDS011;4364;52.426;9.424;2024-01-07T00:24:58;18.43;;;11.57;;
8652;SDS011;4364;52.426;9.424;2024-01-07T00:27:25;19.17;;;11.70;;
8652;SDS011;4364;52.426;9.424;2024-01-07T00:29:51;19.87;;;11.67;;
8652;SDS011;4364;52.426;9.424;2024-01-07T00:32:18;19.23;;;11.20;;
8652;SDS011;4364;52.426;9.424;2024-01-07T00:34:44;20.57;;;10.60;;
8652;SDS011;4364;52.426;9.424;2024-01-07T00:37:12;17.27;;;10.80;;
8652;SDS011;4364;52.426;9.424;2024-01-07T00:39:38;18.80;;;10.97;;
8652;SDS011;4364;52.426;9.424;2024-01-07T00:42:05;17.67;;;10.80;;
8652;SDS011;4364;52.426;9.424;2024-01-07T00:44:31;16.43;;;10.40;;
8652;SDS011;4364;52.426;9.424;2024-01-07T00:46:58;17.13;;;10.50;;
8652;SDS011;4364;52.426;9.424;2024-01-07T00:49:24;19.83;;;10.80;;
8652;SDS011;4364;52.426;9.424;2024-01-07T00:51:51;19.13;;;10.63;;
8652;SDS011;4364;52.426;9.424;2024-01-07T00:54:17;19.30;;;10.83;;
8652;SDS011;4364;52.426;9.424;2024-01-07T00:56:45;16.53;;;10.67;;
8652;SDS011;4364;52.426;9.424;2024-01-07T00:59:12;17.00;;;10.57;;
8652;SDS011;4364;52.426;9.424;2024-01-07T01:01:39;19.47;;;10.80;;
8652;SDS011;4364;52.426;9.424;2024-01-07T01:04:05;18.37;;;10.50;;
8652;SDS011;4364;52.426;9.424;2024-01-07T01:06:32;17.40;;;9.73;;
8652;SDS011;4364;52.426;9.424;2024-01-07T01:08:58;19.27;;;11.07;;
8652;SDS011;4364;52.426;9.424;2024-01-07T01:11:25;17.67;;;11.07;;
8652;SDS011;4364;52.426;9.424;2024-01-07T01:13:52;19.30;;;11.20;;
8652;SDS011;4364;52.426;9.424;2024-01-07T01:16:19;18.90;;;10.83;;
8652;SDS011;4364;52.426;9.424;2024-01-07T01:18:50;19.27;;;11.43;;
8652;SDS011;4364;52.426;9.424;2024-01-07T01:21:16;20.17;;;11.10;;
8652;SDS011;4364;52.426;9.424;2024-01-07T01:23:43;16.77;;;10.63;;
8652;SDS011;4364;52.426;9.424;2024-01-07T01:26:10;21.43;;;11.67;;
8652;SDS011;4364;52.426;9.424;2024-01-07T01:28:36;21.03;;;11.37;;
8652;SDS011;4364;52.426;9.424;2024-01-07T01:31:03;21.73;;;12.40;;
8652;SDS011;4364;52.426;9.424;2024-01-07T01:33:30;17.07;;;10.70;;
8652;SDS011;4364;52.426;9.424;2024-01-07T01:35:57;19.27;;;11.87;;
8652;SDS011;4364;52.426;9.424;2024-01-07T01:38:23;21.33;;;11.67;;
8652;SDS011;4364;52.426;9.424;2024-01-07T01:40:51;21.63;;;11.27;;
8652;SDS011;4364;52.426;9.424;2024-01-07T01:43:29;17.70;;;10.80;;
8652;SDS011;4364;52.426;9.424;2024-01-07T01:45:56;21.33;;;11.43;;
8652;SDS011;4364;52.426;9.424;2024-01-07T01:48:24;24.87;;;11.97;;
8652;SDS011;4364;52.426;9.424;2024-01-07T01:50:51;17.23;;;10.90;;
8652;SDS011;4364;52.426;9.424;2024-01-07T01:53:20;20.70;;;11.30;;
8652;SDS011;4364;52.426;9.424;2024-01-07T01:55:46;19.17;;;11.23;;
8652;SDS011;4364;52.426;9.424;2024-01-07T01:58:13;19.43;;;10.93;;
8652;SDS011;4364;52.426;9.424;2024-01-07T02:00:40;19.67;;;11.00;;
8652;SDS011;4364;52.426;9.424;2024-01-07T02:03:07;19.50;;;10.87;;
8652;SDS011;4364;52.426;9.424;2024-01-07T02:05:33;18.57;;;10.87;;
8652;SDS011;4364;52.426;9.424;2024-01-07T02:08:00;19.50;;;11.00;;
8652;SDS011;4364;52.426;9.424;2024-01-07T02:10:27;20.43;;;11.70;;
8652;SDS011;4364;52.426;9.424;2024-01-07T02:13:02;19.93;;;11.10;;
8652;SDS011;4364;52.426;9.424;2024-01-07T02:15:30;20.77;;;10.23;;
8652;SDS011;4364;52.426;9.424;2024-01-07T02:17:57;18.10;;;9.73;;
8652;SDS011;4364;52.426;9.424;2024-01-07T02:20:23;21.20;;;10.93;;
8652;SDS011;4364;52.426;9.424;2024-01-07T02:22:50;19.30;;;10.73;;
8652;SDS011;4364;52.426;9.424;2024-01-07T02:25:17;19.23;;;10.53;;
8652;SDS011;4364;52.426;9.424;2024-01-07T02:27:44;17.50;;;10.17;;
8652;SDS011;4364;52.426;9.424;2024-01-07T02:30:10;17.20;;;10.07;;
8652;SDS011;4364;52.426;9.424;2024-01-07T02:32:37;17.60;;;10.53;;
8652;SDS011;4364;52.426;9.424;2024-01-07T02:35:04;17.87;;;10.23;;
8652;SDS011;4364;52.426;9.424;2024-01-07T02:37:31;17.20;;;9.47;;
8652;SDS011;4364;52.426;9.424;2024-01-07T02:39:57;15.33;;;9.43;;
8652;SDS011;4364;52.426;9.424;2024-01-07T02:42:27;18.80;;;9.90;;
8652;SDS011;4364;52.426;9.424;2024-01-07T02:44:54;15.20;;;9.23;;
8652;SDS011;4364;52.426;9.424;2024-01-07T02:47:20;17.87;;;9.73;;
8652;SDS011;4364;52.426;9.424;2024-01-07T02:49:47;16.33;;;9.37;;
8652;SDS011;4364;52.426;9.424;2024-01-07T02:52:14;14.47;;;8.83;;
8652;SDS011;4364;52.426;9.424;2024-01-07T02:54:40;15.03;;;9.23;;
8652;SDS011;4364;52.426;9.424;2024-01-07T02:57:07;15.00;;;9.00;;
8652;SDS011;4364;52.426;9.424;2024-01-07T02:59:34;16.23;;;8.50;;
8652;SDS011;4364;52.426;9.424;2024-01-07T03:02:01;15.97;;;8.60;;
8652;SDS011;4364;52.426;9.424;2024-01-07T03:04:27;12.50;;;7.80;;
8652;SDS011;4364;52.426;9.424;2024-01-07T03:06:54;11.67;;;7.50;;
8652;SDS011;4364;52.426;9.424;2024-01-07T03:09:21;12.53;;;7.93;;
8652;SDS011;4364;52.426;9.424;2024-01-07T03:11:47;14.77;;;7.93;;
8652;SDS011;4364;52.426;9.424;2024-01-07T03:14:13;13.03;;;8.20;;
8652;SDS011;4364;52.426;9.424;2024-01-07T03:16:43;13.80;;;8.03;;
8652;SDS011;4364;52.426;9.424;2024-01-07T03:19:09;14.10;;;8.20;;
8652;SDS011;4364;52.426;9.424;2024-01-07T03:21:36;13.73;;;7.60;;
8652;SDS011;4364;52.426;9.424;2024-01-07T03:24:02;12.93;;;8.57;;
8652;SDS011;4364;52.426;9.424;2024-01-07T03:26:30;15.07;;;8.93;;
8652;SDS011;4364;52.426;9.424;2024-01-07T03:28:59;13.60;;;7.83;;
8652;SDS011;4364;52.426;9.424;2024-01-07T03:31:27;12.77;;;7.70;;
8652;SDS011;4364;52.426;9.424;2024-01-07T03:33:54;13.80;;;7.70;;
8652;SDS011;4364;52.426;9.424;2024-01-07T03:36:22;13.37;;;7.70;;
8652;SDS011;4364;52.426;9.424;2024-01-07T03:38:49;12.43;;;7.87;;
8652;SDS011;4364;52.426;9.424;2024-01-07T03:41:19;11.47;;;7.50;;
8652;SDS011;4364;52.426;9.424;2024-01-07T03:43:46;12.17;;;7.47;;
8652;SDS011;4364;52.426;9.424;2024-01-07T03:46:13;11.03;;;7.10;;
8652;SDS011;4364;52.426;9.424;2024-01-07T03:48:40;13.90;;;7.53;;
8652;SDS011;4364;52.426;9.424;2024-01-07T03:51:07;9.90;;;7.17;;
8652;SDS011;4364;52.426;9.424;2024-01-07T03:53:34;11.30;;;7.27;;
8652;SDS011;4364;52.426;9.424;2024-01-07T03:56:01;11.77;;;6.53;;
8652;SDS011;4364;52.426;9.424;2024-01-07T03:58:27;10.17;;;6.80;;
8652;SDS011;4364;52.426;9.424;2024-01-07T04:00:54;12.23;;;7.03;;
8652;SDS011;4364;52.426;9.424;2024-01-07T04:03:20;9.67;;;6.30;;
8652;SDS011;4364;52.426;9.424;2024-01-07T04:05:47;8.83;;;6.03;;
8652;SDS011;4364;52.426;9.424;2024-01-07T04:08:13;8.50;;;6.17;;
8652;SDS011;4364;52.426;9.424;2024-01-07T04:10:41;10.80;;;6.47;;
8652;SDS011;4364;52.426;9.424;2024-01-07T04:13:08;9.83;;;6.03;;
8652;SDS011;4364;52.426;9.424;2024-01-07T04:15:35;10.37;;;6.50;;
8652;SDS011;4364;52.426;9.424;2024-01-07T04:18:02;9.33;;;6.17;;
8652;SDS011;4364;52.426;9.424;2024-01-07T04:20:30;10.43;;;6.37;;
8652;SDS011;4364;52.426;9.424;2024-01-07T04:22:57;9.40;;;5.53;;
8652;SDS011;4364;52.426;9.424;2024-01-07T04:25:24;8.50;;;5.80;;
8652;SDS011;4364;52.426;9.424;2024-01-07T04:27:50;9.50;;;6.20;;
8652;SDS011;4364;52.426;9.424;2024-01-07T04:30:17;10.17;;;5.90;;
8652;SDS011;4364;52.426;9.424;2024-01-07T04:32:43;9.53;;;5.57;;
8652;SDS011;4364;52.426;9.424;2024-01-07T04:35:10;9.40;;;4.77;;
8652;SDS011;4364;52.426;9.424;2024-01-07T04:37:36;7.20;;;5.17;;
8652;SDS011;4364;52.426;9.424;2024-01-07T04:40:03;10.07;;;5.67;;
8652;SDS011;4364;52.426;9.424;2024-01-07T04:42:30;8.97;;;5.20;;
8652;SDS011;4364;52.426;9.424;2024-01-07T04:44:57;7.57;;;4.77;;
8652;SDS011;4364;52.426;9.424;2024-01-07T04:47:27;9.47;;;5.17;;
8652;SDS011;4364;52.426;9.424;2024-01-07T04:49:57;8.23;;;5.20;;
8652;SDS011;4364;52.426;9.424;2024-01-07T04:52:24;7.70;;;4.20;;
8652;SDS011;4364;52.426;9.424;2024-01-07T04:54:52;9.10;;;5.03;;
8652;SDS011;4364;52.426;9.424;2024-01-07T04:57:19;6.37;;;4.50;;
8652;SDS011;4364;52.426;9.424;2024-01-07T04:59:46;8.27;;;4.63;;
8652;SDS011;4364;52.426;9.424;2024-01-07T05:02:13;7.77;;;4.30;;
8652;SDS011;4364;52.426;9.424;2024-01-07T05:04:40;6.20;;;4.33;;
8652;SDS011;4364;52.426;9.424;2024-01-07T05:07:06;8.27;;;4.40;;
8652;SDS011;4364;52.426;9.424;2024-01-07T05:09:33;8.40;;;4.40;;
8652;SDS011;4364;52.426;9.424;2024-01-07T05:12:00;8.77;;;4.00;;
8652;SDS011;4364;52.426;9.424;2024-01-07T05:14:27;5.23;;;3.87;;
8652;SDS011;4364;52.426;9.424;2024-01-07T05:16:53;6.97;;;4.13;;
8652;SDS011;4364;52.426;9.424;2024-01-07T05:19:23;6.47;;;4.37;;
8652;SDS011;4364;52.426;9.424;2024-01-07T05:21:50;8.47;;;4.40;;
8652;SDS011;4364;52.426;9.424;2024-01-07T05:24:16;6.37;;;3.90;;
8652;SDS011;4364;52.426;9.424;2024-01-07T05:26:43;6.17;;;4.10;;
8652;SDS011;4364;52.426;9.424;2024-01-07T05:29:11;6.87;;;3.90;;
8652;SDS011;4364;52.426;9.424;2024-01-07T05:31:41;8.07;;;4.43;;
8652;SDS011;4364;52.426;9.424;2024-01-07T05:34:08;6.63;;;3.97;;
8652;SDS011;4364;52.426;9.424;2024-01-07T05:36:34;9.40;;;4.67;;
8652;SDS011;4364;52.426;9.424;2024-01-07T05:39:01;7.37;;;4.20;;
8652;SDS011;4364;52.426;9.424;2024-01-07T05:41:28;6.63;;;4.37;;
8652;SDS011;4364;52.426;9.424;2024-01-07T05:43:54;6.43;;;4.30;;
8652;SDS011;4364;52.426;9.424;2024-01-07T05:46:20;6.33;;;4.30;;
8652;SDS011;4364;52.426;9.424;2024-01-07T05:48:47;6.33;;;4.00;;
8652;SDS011;4364;52.426;9.424;2024-01-07T05:51:15;6.67;;;4.23;;
8652;SDS011;4364;52.426;9.424;2024-01-07T05:53:44;7.57;;;4.33;;
8652;SDS011;4364;52.426;9.424;2024-01-07T05:56:11;6.57;;;3.90;;
8652;SDS011;4364;52.426;9.424;2024-01-07T05:58:38;6.47;;;4.20;;
8652;SDS011;4364;52.426;9.424;2024-01-07T06:01:04;6.23;;;4.17;;
8652;SDS011;4364;52.426;9.424;2024-01-07T06:03:31;9.90;;;4.50;;
8652;SDS011;4364;52.426;9.424;2024-01-07T06:05:58;9.20;;;4.77;;
8652;SDS011;4364;52.426;9.424;2024-01-07T06:08:26;7.80;;;3.97;;
8652;SDS011;4364;52.426;9.424;2024-01-07T06:10:52;8.43;;;4.30;;
8652;SDS011;4364;52.426;9.424;2024-01-07T06:13:19;7.77;;;4.43;;
8652;SDS011;4364;52.426;9.424;2024-01-07T06:15:45;7.30;;;4.23;;
8652;SDS011;4364;52.426;9.424;2024-01-07T06:18:12;7.20;;;3.87;;
8652;SDS011;4364;52.426;9.424;2024-01-07T06:20:38;5.03;;;3.60;;
8652;SDS011;4364;52.426;9.424;2024-01-07T06:23:06;6.30;;;4.70;;
8652;SDS011;4364;52.426;9.424;2024-01-07T06:25:33;5.77;;;3.87;;
8652;SDS011;4364;52.426;9.424;2024-01-07T06:27:59;5.77;;;4.03;;
8652;SDS011;4364;52.426;9.424;2024-01-07T06:30:27;6.77;;;3.90;;
8652;SDS011;4364;52.426;9.424;2024-01-07T06:32:53;6.43;;;4.00;;
8652;SDS011;4364;52.426;9.424;2024-01-07T06:35:21;7.27;;;4.20;;
8652;SDS011;4364;52.426;9.424;2024-01-07T06:37:47;7.07;;;3.80;;
8652;SDS011;4364;52.426;9.424;2024-01-07T06:40:14;6.17;;;3.90;;
8652;SDS011;4364;52.426;9.424;2024-01-07T06:42:40;6.90;;;3.90;;
8652;SDS011;4364;52.426;9.424;2024-01-07T06:45:07;5.50;;;3.83;;
8652;SDS011;4364;52.426;9.424;2024-01-07T06:47:34;7.00;;;4.10;;
8652;SDS011;4364;52.426;9.424;2024-01-07T06:50:01;8.30;;;3.80;;
8652;SDS011;4364;52.426;9.424;2024-01-07T06:52:27;9.43;;;3.73;;
8652;SDS011;4364;52.426;9.424;2024-01-07T06:54:54;6.57;;;3.90;;
8652;SDS011;4364;52.426;9.424;2024-01-07T06:57:20;6.43;;;3.90;;
8652;SDS011;4364;52.426;9.424;2024-01-07T06:59:47;5.33;;;3.70;;
8652;SDS011;4364;52.426;9.424;2024-01-07T07:02:13;6.03;;;3.83;;
8652;SDS011;4364;52.426;9.424;2024-01-07T07:04:40;5.30;;;3.40;;
8652;SDS011;4364;52.426;9.424;2024-01-07T07:07:06;5.03;;;3.40;;
8652;SDS011;4364;52.426;9.424;2024-01-07T07:09:33;4.70;;;3.40;;
8652;SDS011;4364;52.426;9.424;2024-01-07T07:12:00;5.63;;;3.60;;
8652;SDS011;4364;52.426;9.424;2024-01-07T07:14:27;5.73;;;3.77;;
8652;SDS011;4364;52.426;9.424;2024-01-07T07:16:53;5.37;;;3.70;;
8652;SDS011;4364;52.426;9.424;2024-01-07T07:19:20;7.60;;;4.50;;
8652;SDS011;4364;52.426;9.424;2024-01-07T07:21:46;7.63;;;5.83;;
8652;SDS011;4364;52.426;9.424;2024-01-07T07:24:13;10.20;;;5.00;;
8652;SDS011;4364;52.426;9.424;2024-01-07T07:26:39;7.10;;;4.57;;
8652;SDS011;4364;52.426;9.424;2024-01-07T07:29:07;4.90;;;3.60;;
8652;SDS011;4364;52.426;9.424;2024-01-07T07:31:36;5.43;;;4.30;;
8652;SDS011;4364;52.426;9.424;2024-01-07T07:34:03;7.53;;;4.90;;
8652;SDS011;4364;52.426;9.424;2024-01-07T07:36:31;6.63;;;4.10;;
8652;SDS011;4364;52.426;9.424;2024-01-07T07:38:57;7.90;;;3.80;;
8652;SDS011;4364;52.426;9.424;2024-01-07T07:41:25;7.90;;;3.93;;
8652;SDS011;4364;52.426;9.424;2024-01-07T07:43:52;5.20;;;3.83;;
8652;SDS011;4364;52.426;9.424;2024-01-07T07:46:19;5.80;;;3.50;;
8652;SDS011;4364;52.426;9.424;2024-01-07T07:48:45;5.67;;;3.60;;
8652;SDS011;4364;52.426;9.424;2024-01-07T07:51:12;8.30;;;4.07;;
8652;SDS011;4364;52.426;9.424;2024-01-07T07:53:38;4.30;;;3.53;;
8652;SDS011;4364;52.426;9.424;2024-01-07T07:56:06;5.57;;;3.63;;
8652;SDS011;4364;52.426;9.424;2024-01-07T07:58:33;4.77;;;3.37;;
8652;SDS011;4364;52.426;9.424;2024-01-07T08:00:59;5.37;;;3.53;;
8652;SDS011;4364;52.426;9.424;2024-01-07T08:03:26;5.60;;;3.20;;
8652;SDS011;4364;52.426;9.424;2024-01-07T08:05:53;4.13;;;3.00;;
8652;SDS011;4364;52.426;9.424;2024-01-07T08:08:20;6.00;;;3.77;;
8652;SDS011;4364;52.426;9.424;2024-01-07T08:10:46;5.30;;;3.60;;
8652;SDS011;4364;52.426;9.424;2024-01-07T08:13:12;4.17;;;3.50;;
8652;SDS011;4364;52.426;9.424;2024-01-07T08:15:40;4.70;;;3.30;;
8652;SDS011;4364;52.426;9.424;2024-01-07T08:18:06;5.57;;;3.37;;
8652;SDS011;4364;52.426;9.424;2024-01-07T08:20:33;8.00;;;3.70;;
8652;SDS011;4364;52.426;9.424;2024-01-07T08:22:59;6.83;;;3.63;;
8652;SDS011;4364;52.426;9.424;2024-01-07T08:25:27;4.50;;;3.00;;
8652;SDS011;4364;52.426;9.424;2024-01-07T08:27:53;4.87;;;3.57;;
8652;SDS011;4364;52.426;9.424;2024-01-07T08:30:20;5.80;;;3.50;;
8652;SDS011;4364;52.426;9.424;2024-01-07T08:32:47;7.73;;;3.47;;
8652;SDS011;4364;52.426;9.424;2024-01-07T08:35:13;5.30;;;3.30;;
8652;SDS011;4364;52.426;9.424;2024-01-07T08:37:44;6.10;;;3.30;;
8652;SDS011;4364;52.426;9.424;2024-01-07T08:40:11;5.27;;;3.20;;
8652;SDS011;4364;52.426;9.424;2024-01-07T08:42:39;7.53;;;3.37;;
8652;SDS011;4364;52.426;9.424;2024-01-07T08:45:07;5.13;;;3.67;;
8652;SDS011;4364;52.426;9.424;2024-01-07T08:47:34;6.87;;;4.03;;
8652;SDS011;4364;52.426;9.424;2024-01-07T08:50:08;5.80;;;3.60;;
8652;SDS011;4364;52.426;9.424;2024-01-07T08:52:35;5.60;;;3.40;;
8652;SDS011;4364;52.426;9.424;2024-01-07T08:55:02;7.40;;;3.33;;
8652;SDS011;4364;52.426;9.424;2024-01-07T08:57:29;5.53;;;3.17;;
8652;SDS011;4364;52.426;9.424;2024-01-07T08:59:56;5.40;;;3.23;;
8652;SDS011;4364;52.426;9.424;2024-01-07T09:02:23;4.63;;;3.03;;
8652;SDS011;4364;52.426;9.424;2024-01-07T09:04:49;5.90;;;3.63;;
8652;SDS011;4364;52.426;9.424;2024-01-07T09:07:16;5.23;;;3.60;;
8652;SDS011;4364;52.426;9.424;2024-01-07T09:09:43;6.97;;;3.60;;
8652;SDS011;4364;52.426;9.424;2024-01-07T09:12:09;6.00;;;3.53;;
8652;SDS011;4364;52.426;9.424;2024-01-07T09:14:36;5.07;;;3.30;;
8652;SDS011;4364;52.426;9.424;2024-01-07T09:17:03;5.50;;;3.57;;
8652;SDS011;4364;52.426;9.424;2024-01-07T09:19:30;5.73;;;2.90;;
8652;SDS011;4364;52.426;9.424;2024-01-07T09:21:56;6.40;;;3.40;;
8652;SDS011;4364;52.426;9.424;2024-01-07T09:24:23;7.10;;;3.70;;
8652;SDS011;4364;52.426;9.424;2024-01-07T09:26:50;5.50;;;3.30;;
8652;SDS011;4364;52.426;9.424;2024-01-07T09:29:17;6.37;;;3.77;;
8652;SDS011;4364;52.426;9.424;2024-01-07T09:31:44;6.07;;;3.50;;
8652;SDS011;4364;52.426;9.424;2024-01-07T09:34:10;4.23;;;3.43;;
8652;SDS011;4364;52.426;9.424;2024-01-07T09:36:37;7.07;;;3.50;;
8652;SDS011;4364;52.426;9.424;2024-01-07T09:39:04;8.53;;;3.93;;
8652;SDS011;4364;52.426;9.424;2024-01-07T09:41:33;7.60;;;3.97;;
8652;SDS011;4364;52.426;9.424;2024-01-07T09:44:00;5.27;;;3.50;;
8652;SDS011;4364;52.426;9.424;2024-01-07T09:46:28;8.43;;;3.47;;
8652;SDS011;4364;52.426;9.424;2024-01-07T09:48:56;5.50;;;3.40;;
8652;SDS011;4364;52.426;9.424;2024-01-07T09:51:23;6.13;;;3.60;;
8652;SDS011;4364;52.426;9.424;2024-01-07T09:53:50;5.90;;;3.50;;
8652;SDS011;4364;52.426;9.424;2024-01-07T09:56:24;5.50;;;3.53;;
8652;SDS011;4364;52.426;9.424;2024-01-07T09:58:52;6.53;;;3.70;;
8652;SDS011;4364;52.426;9.424;2024-01-07T10:01:18;5.93;;;3.70;;
8652;SDS011;4364;52.426;9.424;2024-01-07T10:03:45;5.43;;;3.47;;
8652;SDS011;4364;52.426;9.424;2024-01-07T10:06:12;7.77;;;3.67;;
8652;SDS011;4364;52.426;9.424;2024-01-07T10:08:39;5.40;;;3.77;;
8652;SDS011;4364;52.426;9.424;2024-01-07T10:11:06;5.97;;;3.80;;
8652;SDS011;4364;52.426;9.424;2024-01-07T10:13:35;7.17;;;3.87;;
8652;SDS011;4364;52.426;9.424;2024-01-07T10:16:02;7.43;;;4.03;;
8652;SDS011;4364;52.426;9.424;2024-01-07T10:18:29;5.33;;;3.80;;
8652;SDS011;4364;52.426;9.424;2024-01-07T10:21:05;6.60;;;3.60;;
8652;SDS011;4364;52.426;9.424;2024-01-07T10:23:33;5.17;;;3.60;;
8652;SDS011;4364;52.426;9.424;2024-01-07T10:25:59;5.43;;;3.60;;
8652;SDS011;4364;52.426;9.424;2024-01-07T10:28:37;7.07;;;4.20;;
8652;SDS011;4364;52.426;9.424;2024-01-07T10:31:03;5.77;;;3.60;;
8652;SDS011;4364;52.426;9.424;2024-01-07T10:33:30;6.80;;;4.10;;
8652;SDS011;4364;52.426;9.424;2024-01-07T10:36:02;6.83;;;3.80;;
8652;SDS011;4364;52.426;9.424;2024-01-07T10:38:31;5.60;;;3.67;;
8652;SDS011;4364;52.426;9.424;2024-01-07T10:41:01;6.13;;;3.67;;
8652;SDS011;4364;52.426;9.424;2024-01-07T10:43:29;4.70;;;3.30;;
8652;SDS011;4364;52.426;9.424;2024-01-07T10:45:56;5.63;;;3.60;;
8652;SDS011;4364;52.426;9.424;2024-01-07T10:48:30;8.13;;;3.63;;
8652;SDS011;4364;52.426;9.424;2024-01-07T10:50:59;5.53;;;3.63;;
8652;SDS011;4364;52.426;9.424;2024-01-07T10:53:28;5.67;;;3.60;;
8652;SDS011;4364;52.426;9.424;2024-01-07T10:56:05;5.77;;;3.70;;
8652;SDS011;4364;52.426;9.424;2024-01-07T10:58:35;5.93;;;3.67;;
8652;SDS011;4364;52.426;9.424;2024-01-07T11:01:02;9.37;;;4.00;;
8652;SDS011;4364;52.426;9.424;2024-01-07T11:06:43;5.93;;;3.90;;
8652;SDS011;4364;52.426;9.424;2024-01-07T11:09:33;4.77;;;3.13;;
8652;SDS011;4364;52.426;9.424;2024-01-07T11:12:04;7.30;;;3.70;;
8652;SDS011;4364;52.426;9.424;2024-01-07T11:14:35;6.23;;;3.53;;
8652;SDS011;4364;52.426;9.424;2024-01-07T11:17:03;4.93;;;3.63;;
8652;SDS011;4364;52.426;9.424;2024-01-07T11:19:30;5.20;;;3.37;;
8652;SDS011;4364;52.426;9.424;2024-01-07T11:22:20;5.80;;;3.30;;
8652;SDS011;4364;52.426;9.424;2024-01-07T11:24:56;6.20;;;3.67;;
8652;SDS011;4364;52.426;9.424;2024-01-07T11:27:24;6.07;;;3.80;;
8652;SDS011;4364;52.426;9.424;2024-01-07T11:29:52;8.80;;;3.40;;
8652;SDS011;4364;52.426;9.424;2024-01-07T11:32:23;6.10;;;3.50;;
8652;SDS011;4364;52.426;9.424;2024-01-07T11:34:51;9.20;;;3.47;;
8652;SDS011;4364;52.426;9.424;2024-01-07T11:37:20;6.00;;;3.97;;
8652;SDS011;4364;52.426;9.424;2024-01-07T11:39:48;5.50;;;3.40;;
8652;SDS011;4364;52.426;9.424;2024-01-07T11:42:17;7.27;;;3.90;;
8652;SDS011;4364;52.426;9.424;2024-01-07T11:44:47;6.83;;;3.40;;
8652;SDS011;4364;52.426;9.424;2024-01-07T11:47:15;6.87;;;3.47;;
8652;SDS011;4364;52.426;9.424;2024-01-07T11:49:45;6.30;;;3.47;;
8652;SDS011;4364;52.426;9.424;2024-01-07T11:52:13;6.67;;;3.40;;
8652;SDS011;4364;52.426;9.424;2024-01-07T11:54:40;5.57;;;3.23;;
8652;SDS011;4364;52.426;9.424;2024-01-07T11:57:07;7.20;;;3.60;;
8652;SDS011;4364;52.426;9.424;2024-01-07T11:59:34;6.73;;;3.83;;
8652;SDS011;4364;52.426;9.424;2024-01-07T12:02:01;5.73;;;3.30;;
8652;SDS011;4364;52.426;9.424;2024-01-07T12:04:31;5.73;;;3.17;;
8652;SDS011;4364;52.426;9.424;2024-01-07T12:06:58;7.10;;;3.53;;
8652;SDS011;4364;52.426;9.424;2024-01-07T12:09:25;6.57;;;3.23;;
8652;SDS011;4364;52.426;9.424;2024-01-07T12:11:52;5.23;;;3.33;;
8652;SDS011;4364;52.426;9.424;2024-01-07T12:14:19;6.50;;;2.90;;
8652;SDS011;4364;52.426;9.424;2024-01-07T12:16:46;5.37;;;3.00;;
8652;SDS011;4364;52.426;9.424;2024-01-07T12:19:13;6.50;;;3.30;;
8652;SDS011;4364;52.426;9.424;2024-01-07T12:21:39;6.20;;;3.20;;
8652;SDS011;4364;52.426;9.424;2024-01-07T12:24:06;5.50;;;3.13;;
8652;SDS011;4364;52.426;9.424;2024-01-07T12:26:33;4.50;;;2.83;;
8652;SDS011;4364;52.426;9.424;2024-01-07T12:29:00;6.40;;;3.00;;
8652;SDS011;4364;52.426;9.424;2024-01-07T12:31:31;6.33;;;3.37;;
8652;SDS011;4364;52.426;9.424;2024-01-07T12:33:58;6.37;;;3.20;;
8652;SDS011;4364;52.426;9.424;2024-01-07T12:36:25;4.83;;;3.27;;
8652;SDS011;4364;52.426;9.424;2024-01-07T12:38:52;6.37;;;2.80;;
8652;SDS011;4364;52.426;9.424;2024-01-07T12:41:22;4.87;;;2.77;;
8652;SDS011;4364;52.426;9.424;2024-01-07T12:43:49;8.47;;;3.20;;
8652;SDS011;4364;52.426;9.424;2024-01-07T12:46:16;5.47;;;2.73;;
8652;SDS011;4364;52.426;9.424;2024-01-07T12:48:43;5.17;;;2.77;;
8652;SDS011;4364;52.426;9.424;2024-01-07T12:51:10;7.50;;;3.27;;
8652;SDS011;4364;52.426;9.424;2024-01-07T12:53:37;4.57;;;2.80;;
8652;SDS011;4364;52.426;9.424;2024-01-07T12:56:03;6.07;;;2.93;;
8652;SDS011;4364;52.426;9.424;2024-01-07T12:58:30;4.53;;;3.00;;
8652;SDS011;4364;52.426;9.424;2024-01-07T13:00:57;6.00;;;4.03;;
8652;SDS011;4364;52.426;9.424;2024-01-07T13:03:24;4.90;;;3.13;;
8652;SDS011;4364;52.426;9.424;2024-01-07T13:05:51;6.70;;;3.60;;
8652;SDS011;4364;52.426;9.424;2024-01-07T13:08:18;4.20;;;3.07;;
8652;SDS011;4364;52.426;9.424;2024-01-07T13:10:45;5.77;;;2.90;;
8652;SDS011;4364;52.426;9.424;2024-01-07T13:13:12;5.57;;;3.07;;
8652;SDS011;4364;52.426;9.424;2024-01-07T13:15:41;4.77;;;3.00;;
8652;SDS011;4364;52.426;9.424;2024-01-07T13:18:09;3.40;;;2.53;;
8652;SDS011;4364;52.426;9.424;2024-01-07T13:20:38;4.70;;;2.70;;
8652;SDS011;4364;52.426;9.424;2024-01-07T13:23:06;3.43;;;2.37;;
8652;SDS011;4364;52.426;9.424;2024-01-07T13:25:32;4.07;;;2.63;;
8652;SDS011;4364;52.426;9.424;2024-01-07T13:27:59;5.33;;;2.60;;
8652;SDS011;4364;52.426;9.424;2024-01-07T13:30:26;5.33;;;2.40;;
8652;SDS011;4364;52.426;9.424;2024-01-07T13:32:52;5.43;;;2.30;;
8652;SDS011;4364;52.426;9.424;2024-01-07T13:35:23;4.93;;;2.50;;
8652;SDS011;4364;52.426;9.424;2024-01-07T13:37:51;5.80;;;2.70;;
8652;SDS011;4364;52.426;9.424;2024-01-07T13:40:18;4.67;;;2.63;;
8652;SDS011;4364;52.426;9.424;2024-01-07T13:42:45;3.10;;;2.13;;
8652;SDS011;4364;52.426;9.424;2024-01-07T13:45:12;6.47;;;3.00;;
8652;SDS011;4364;52.426;9.424;2024-01-07T13:47:40;4.83;;;2.30;;
8652;SDS011;4364;52.426;9.424;2024-01-07T13:50:06;4.27;;;2.60;;
8652;SDS011;4364;52.426;9.424;2024-01-07T13:52:33;4.70;;;2.73;;
8652;SDS011;4364;52.426;9.424;2024-01-07T13:55:00;4.40;;;2.70;;
8652;SDS011;4364;52.426;9.424;2024-01-07T13:57:26;5.80;;;2.90;;
8652;SDS011;4364;52.426;9.424;2024-01-07T13:59:53;4.73;;;2.63;;
8652;SDS011;4364;52.426;9.424;2024-01-07T14:02:20;4.50;;;2.43;;
8652;SDS011;4364;52.426;9.424;2024-01-07T14:04:48;4.60;;;2.80;;
8652;SDS011;4364;52.426;9.424;2024-01-07T14:07:17;4.33;;;2.60;;
8652;SDS011;4364;52.426;9.424;2024-01-07T14:09:43;3.37;;;2.63;;
8652;SDS011;4364;52.426;9.424;2024-01-07T14:12:10;5.20;;;2.97;;
8652;SDS011;4364;52.426;9.424;2024-01-07T14:14:36;6.53;;;2.97;;
8652;SDS011;4364;52.426;9.424;2024-01-07T14:17:03;4.03;;;2.77;;
8652;SDS011;4364;52.426;9.424;2024-01-07T14:19:29;4.17;;;2.80;;
8652;SDS011;4364;52.426;9.424;2024-01-07T14:21:56;3.17;;;2.40;;
8652;SDS011;4364;52.426;9.424;2024-01-07T14:24:23;5.57;;;3.27;;
8652;SDS011;4364;52.426;9.424;2024-01-07T14:26:49;3.80;;;2.80;;
8652;SDS011;4364;52.426;9.424;2024-01-07T14:29:16;7.93;;;3.10;;
8652;SDS011;4364;52.426;9.424;2024-01-07T14:31:44;5.50;;;3.03;;
8652;SDS011;4364;52.426;9.424;2024-01-07T14:34:12;4.93;;;2.93;;
8652;SDS011;4364;52.426;9.424;2024-01-07T14:36:41;6.03;;;2.90;;
8652;SDS011;4364;52.426;9.424;2024-01-07T14:39:10;6.13;;;3.40;;
8652;SDS011;4364;52.426;9.424;2024-01-07T14:41:36;4.60;;;3.13;;
8652;SDS011;4364;52.426;9.424;2024-01-07T14:44:03;5.50;;;3.00;;
8652;SDS011;4364;52.426;9.424;2024-01-07T14:46:36;5.17;;;3.20;;
8652;SDS011;4364;52.426;9.424;2024-01-07T14:49:03;7.83;;;3.70;;
8652;SDS011;4364;52.426;9.424;2024-01-07T14:51:31;4.80;;;3.07;;
8652;SDS011;4364;52.426;9.424;2024-01-07T14:53:58;5.90;;;3.13;;
8652;SDS011;4364;52.426;9.424;2024-01-07T14:56:25;5.77;;;3.77;;
8652;SDS011;4364;52.426;9.424;2024-01-07T14:58:51;6.07;;;3.97;;
8652;SDS011;4364;52.426;9.424;2024-01-07T15:01:18;5.40;;;3.30;;
8652;SDS011;4364;52.426;9.424;2024-01-07T15:03:45;6.63;;;3.50;;
8652;SDS011;4364;52.426;9.424;2024-01-07T15:06:11;6.47;;;3.73;;
8652;SDS011;4364;52.426;9.424;2024-01-07T15:08:41;4.03;;;3.10;;
8652;SDS011;4364;52.426;9.424;2024-01-07T15:11:09;6.77;;;3.23;;
8652;SDS011;4364;52.426;9.424;2024-01-07T15:13:36;5.50;;;3.00;;